sensor_id;sensor_type;location;lat;lon;timestamp;pressure;altitude;pressure_sealevel;temperature;humidity
8717;BME280;4395;48.554;8.820;2023-09-30T00:01:09;96724.09;;;15.03;69.48
8717;BME280;4395;48.554;8.820;2023-09-30T00:03:12;96727.75;;;14.97;69.22
8717;BME280;4395;48.554;8.820;2023-09-30T00:05:15;96718.06;;;14.93;69.51
8717;BME280;4395;48.554;8.820;2023-09-30T00:07:21;96712.03;;;14.92;69.36
8717;BME280;4395;48.554;8.820;2023-09-30T00:09:24;96706.50;;;14.89;69.41
8717;BME280;4395;48.554;8.820;2023-09-30T00:11:27;96706.78;;;14.87;69.33
8717;BME280;4395;48.554;8.820;2023-09-30T00:13:30;96715.16;;;14.89;69.82
8717;BME280;4395;48.554;8.820;2023-09-30T00:15:34;96721.47;;;14.88;69.44
8717;BME280;4395;48.554;8.820;2023-09-30T00:17:37;96721.72;;;14.87;68.88
8717;BME280;4395;48.554;8.820;2023-09-30T00:19:40;96720.13;;;14.86;68.74
8717;BME280;4395;48.554;8.820;2023-09-30T00:21:43;96716.75;;;14.90;68.87
8717;BME280;4395;48.554;8.820;2023-09-30T00:23:46;96713.06;;;14.86;69.00
8717;BME280;4395;48.554;8.820;2023-09-30T00:25:49;96723.53;;;14.86;68.69
8717;BME280;4395;48.554;8.820;2023-09-30T00:27:52;96720.94;;;14.86;69.13
8717;BME280;4395;48.554;8.820;2023-09-30T00:29:55;96712.53;;;14.89;69.45
8717;BME280;4395;48.554;8.820;2023-09-30T00:31:59;96713.06;;;14.91;68.92
8717;BME280;4395;48.554;8.820;2023-09-30T00:34:02;96708.63;;;14.92;68.77
8717;BME280;4395;48.554;8.820;2023-09-30T00:36:07;96706.53;;;14.94;68.85
8717;BME280;4395;48.554;8.820;2023-09-30T00:38:10;96712.31;;;14.96;68.81
8717;BME280;4395;48.554;8.820;2023-09-30T00:40:13;96710.47;;;14.96;69.01
8717;BME280;4395;48.554;8.820;2023-09-30T00:42:16;96709.94;;;14.99;69.62
8717;BME280;4395;48.554;8.820;2023-09-30T00:44:20;96717.81;;;14.99;69.47
8717;BME280;4395;48.554;8.820;2023-09-30T00:46:26;96714.94;;;14.96;69.79
8717;BME280;4395;48.554;8.820;2023-09-30T00:48:34;96714.38;;;14.89;69.92
8717;BME280;4395;48.554;8.820;2023-09-30T00:50:37;96712.00;;;14.87;70.28
8717;BME280;4395;48.554;8.820;2023-09-30T00:52:42;96709.13;;;14.89;69.77
8717;BME280;4395;48.554;8.820;2023-09-30T00:54:47;96712.03;;;14.92;70.33
8717;BME280;4395;48.554;8.820;2023-09-30T00:56:52;96702.06;;;14.94;69.47
8717;BME280;4395;48.554;8.820;2023-09-30T00:58:57;96705.75;;;14.93;69.70
8717;BME280;4395;48.554;8.820;2023-09-30T01:01:01;96707.31;;;14.89;69.99
8717;BME280;4395;48.554;8.820;2023-09-30T01:03:03;96711.00;;;14.93;69.74
8717;BME280;4395;48.554;8.820;2023-09-30T01:05:08;96710.19;;;14.93;70.33
8717;BME280;4395;48.554;8.820;2023-09-30T01:07:11;96719.38;;;14.95;69.96
8717;BME280;4395;48.554;8.820;2023-09-30T01:09:15;96713.88;;;14.92;70.19
8717;BME280;4395;48.554;8.820;2023-09-30T01:11:17;96718.06;;;14.98;70.30
8717;BME280;4395;48.554;8.820;2023-09-30T01:13:21;96713.63;;;15.03;69.81
8717;BME280;4395;48.554;8.820;2023-09-30T01:15:23;96704.19;;;15.07;69.87
8717;BME280;4395;48.554;8.820;2023-09-30T01:17:25;96707.84;;;15.11;69.36
8717;BME280;4395;48.554;8.820;2023-09-30T01:19:30;96712.06;;;15.07;69.53
8717;BME280;4395;48.554;8.820;2023-09-30T01:21:35;96717.56;;;15.06;69.75
8717;BME280;4395;48.554;8.820;2023-09-30T01:23:38;96715.19;;;15.04;69.36
8717;BME280;4395;48.554;8.820;2023-09-30T01:25:41;96718.34;;;15.01;69.69
8717;BME280;4395;48.554;8.820;2023-09-30T01:27:45;96722.78;;;15.01;69.70
8717;BME280;4395;48.554;8.820;2023-09-30T01:29:49;96718.34;;;15.01;69.88
8717;BME280;4395;48.554;8.820;2023-09-30T01:31:52;96714.16;;;14.95;69.58
8717;BME280;4395;48.554;8.820;2023-09-30T01:33:56;96714.66;;;14.92;69.60
8717;BME280;4395;48.554;8.820;2023-09-30T01:35:59;96712.28;;;14.91;69.50
8717;BME280;4395;48.554;8.820;2023-09-30T01:38:03;96714.66;;;14.92;69.26
8717;BME280;4395;48.554;8.820;2023-09-30T01:40:07;96719.38;;;14.95;69.75
8717;BME280;4395;48.554;8.820;2023-09-30T01:42:13;96720.97;;;14.96;69.52
8717;BME280;4395;48.554;8.820;2023-09-30T01:44:16;96723.84;;;14.95;70.31
8717;BME280;4395;48.554;8.820;2023-09-30T01:46:17;96732.22;;;14.92;70.18
8717;BME280;4395;48.554;8.820;2023-09-30T01:48:20;96728.53;;;14.88;70.44
8717;BME280;4395;48.554;8.820;2023-09-30T01:50:24;96724.09;;;14.88;69.98
8717;BME280;4395;48.554;8.820;2023-09-30T01:52:26;96724.34;;;14.87;70.12
8717;BME280;4395;48.554;8.820;2023-09-30T01:54:30;96735.34;;;14.89;69.72
8717;BME280;4395;48.554;8.820;2023-09-30T01:56:33;96725.66;;;14.84;69.75
8717;BME280;4395;48.554;8.820;2023-09-30T01:58:36;96728.81;;;14.81;69.06
8717;BME280;4395;48.554;8.820;2023-09-30T02:00:38;96728.28;;;14.84;69.55
8717;BME280;4395;48.554;8.820;2023-09-30T02:02:41;96731.41;;;14.86;69.42
8717;BME280;4395;48.554;8.820;2023-09-30T02:04:44;96725.13;;;14.87;70.08
8717;BME280;4395;48.554;8.820;2023-09-30T02:06:47;96724.63;;;14.85;70.55
8717;BME280;4395;48.554;8.820;2023-09-30T02:08:49;96730.91;;;14.84;69.90
8717;BME280;4395;48.554;8.820;2023-09-30T02:10:54;96737.72;;;14.80;70.29
8717;BME280;4395;48.554;8.820;2023-09-30T02:12:56;96735.06;;;14.70;70.12
8717;BME280;4395;48.554;8.820;2023-09-30T02:15:03;96743.44;;;14.67;70.54
8717;BME280;4395;48.554;8.820;2023-09-30T02:17:06;96739.50;;;14.64;71.13
8717;BME280;4395;48.554;8.820;2023-09-30T02:19:10;96730.31;;;14.62;70.13
8717;BME280;4395;48.554;8.820;2023-09-30T02:21:13;96743.44;;;14.67;70.16
8717;BME280;4395;48.554;8.820;2023-09-30T02:23:16;96748.19;;;14.70;70.38
8717;BME280;4395;48.554;8.820;2023-09-30T02:25:19;96738.72;;;14.74;70.24
8717;BME280;4395;48.554;8.820;2023-09-30T02:27:24;96747.13;;;14.76;70.28
8717;BME280;4395;48.554;8.820;2023-09-30T02:29:27;96739.78;;;14.78;70.02
8717;BME280;4395;48.554;8.820;2023-09-30T02:31:29;96741.38;;;14.79;69.68
8717;BME280;4395;48.554;8.820;2023-09-30T02:33:33;96730.88;;;14.79;69.92
8717;BME280;4395;48.554;8.820;2023-09-30T02:35:37;96735.09;;;14.80;69.81
8717;BME280;4395;48.554;8.820;2023-09-30T02:37:40;96738.00;;;14.84;70.37
8717;BME280;4395;48.554;8.820;2023-09-30T02:39:45;96743.75;;;14.81;70.29
8717;BME280;4395;48.554;8.820;2023-09-30T02:41:48;96745.03;;;14.78;70.88
8717;BME280;4395;48.554;8.820;2023-09-30T02:43:53;96744.25;;;14.77;70.76
8717;BME280;4395;48.554;8.820;2023-09-30T02:45:57;96746.09;;;14.82;71.02
8717;BME280;4395;48.554;8.820;2023-09-30T02:48:00;96741.38;;;14.79;70.60
8717;BME280;4395;48.554;8.820;2023-09-30T02:50:07;96734.03;;;14.81;70.08
8717;BME280;4395;48.554;8.820;2023-09-30T02:52:13;96733.53;;;14.84;70.42
8717;BME280;4395;48.554;8.820;2023-09-30T02:54:16;96740.88;;;14.82;70.23
8717;BME280;4395;48.554;8.820;2023-09-30T02:56:19;96743.75;;;14.86;69.75
8717;BME280;4395;48.554;8.820;2023-09-30T02:58:22;96752.94;;;14.88;69.95
8717;BME280;4395;48.554;8.820;2023-09-30T03:00:26;96741.13;;;14.86;69.96
8717;BME280;4395;48.554;8.820;2023-09-30T03:02:36;96750.31;;;14.88;70.03
8717;BME280;4395;48.554;8.820;2023-09-30T03:04:40;96750.56;;;14.87;69.61
8717;BME280;4395;48.554;8.820;2023-09-30T03:06:44;96750.31;;;14.88;70.23
8717;BME280;4395;48.554;8.820;2023-09-30T03:08:47;96754.75;;;14.88;69.89
8717;BME280;4395;48.554;8.820;2023-09-30T03:10:49;96751.88;;;14.89;70.47
8717;BME280;4395;48.554;8.820;2023-09-30T03:12:52;96753.47;;;14.90;69.68
8717;BME280;4395;48.554;8.820;2023-09-30T03:14:55;96751.38;;;14.92;69.54
8717;BME280;4395;48.554;8.820;2023-09-30T03:17:00;96747.19;;;14.96;70.73
8717;BME280;4395;48.554;8.820;2023-09-30T03:19:03;96749.81;;;14.96;70.84
8717;BME280;4395;48.554;8.820;2023-09-30T03:21:13;96746.41;;;14.96;70.92
8717;BME280;4395;48.554;8.820;2023-09-30T03:23:17;96754.25;;;15.01;71.08
8717;BME280;4395;48.554;8.820;2023-09-30T03:25:21;96757.69;;;15.06;70.77
8717;BME280;4395;48.554;8.820;2023-09-30T03:27:24;96755.84;;;15.02;69.75
8717;BME280;4395;48.554;8.820;2023-09-30T03:29:27;96760.56;;;15.00;70.05
8717;BME280;4395;48.554;8.820;2023-09-30T03:31:30;96764.22;;;14.99;70.50
8717;BME280;4395;48.554;8.820;2023-09-30T03:33:35;96767.91;;;14.93;70.20
8717;BME280;4395;48.554;8.820;2023-09-30T03:35:38;96755.03;;;14.91;70.79
8717;BME280;4395;48.554;8.820;2023-09-30T03:37:44;96760.31;;;14.96;70.88
8717;BME280;4395;48.554;8.820;2023-09-30T03:39:48;96745.63;;;14.95;71.22
8717;BME280;4395;48.554;8.820;2023-09-30T03:41:51;96744.56;;;14.96;71.22
8717;BME280;4395;48.554;8.820;2023-09-30T03:43:55;96740.63;;;14.94;71.50
8717;BME280;4395;48.554;8.820;2023-09-30T03:45:59;96737.50;;;14.97;71.25
8717;BME280;4395;48.554;8.820;2023-09-30T03:48:03;96735.66;;;15.02;70.89
8717;BME280;4395;48.554;8.820;2023-09-30T03:50:07;96729.63;;;15.02;71.26
8717;BME280;4395;48.554;8.820;2023-09-30T03:52:16;96726.22;;;15.06;71.11
8717;BME280;4395;48.554;8.820;2023-09-30T03:54:19;96725.19;;;15.07;70.70
8717;BME280;4395;48.554;8.820;2023-09-30T03:56:23;96720.19;;;15.06;71.11
8717;BME280;4395;48.554;8.820;2023-09-30T03:58:25;96730.91;;;15.09;71.06
8717;BME280;4395;48.554;8.820;2023-09-30T04:00:28;96719.41;;;15.05;71.13
8717;BME280;4395;48.554;8.820;2023-09-30T04:02:30;96721.47;;;15.03;70.85
8717;BME280;4395;48.554;8.820;2023-09-30T04:04:33;96727.78;;;15.02;70.56
8717;BME280;4395;48.554;8.820;2023-09-30T04:06:40;96723.06;;;15.04;70.73
8717;BME280;4395;48.554;8.820;2023-09-30T04:08:42;96730.91;;;14.99;71.13
8717;BME280;4395;48.554;8.820;2023-09-30T04:10:45;96731.47;;;14.96;71.05
8717;BME280;4395;48.554;8.820;2023-09-30T04:12:48;96738.25;;;14.92;71.15
8717;BME280;4395;48.554;8.820;2023-09-30T04:14:51;96739.31;;;14.91;71.55
8717;BME280;4395;48.554;8.820;2023-09-30T04:16:54;96739.84;;;14.93;71.41
8717;BME280;4395;48.554;8.820;2023-09-30T04:18:57;96735.91;;;14.96;71.79
8717;BME280;4395;48.554;8.820;2023-09-30T04:21:00;96741.41;;;14.99;71.23
8717;BME280;4395;48.554;8.820;2023-09-30T04:23:05;96741.44;;;15.04;71.51
8717;BME280;4395;48.554;8.820;2023-09-30T04:25:08;96751.38;;;14.97;71.39
8717;BME280;4395;48.554;8.820;2023-09-30T04:27:12;96745.34;;;14.92;71.54
8717;BME280;4395;48.554;8.820;2023-09-30T04:29:15;96738.25;;;14.87;72.18
8717;BME280;4395;48.554;8.820;2023-09-30T04:31:18;96733.00;;;14.87;71.82
8717;BME280;4395;48.554;8.820;2023-09-30T04:33:21;96742.44;;;14.88;71.96
8717;BME280;4395;48.554;8.820;2023-09-30T04:35:26;96749.25;;;14.84;71.76
8717;BME280;4395;48.554;8.820;2023-09-30T04:37:28;96766.56;;;14.80;71.92
8717;BME280;4395;48.554;8.820;2023-09-30T04:39:32;96769.44;;;14.78;72.26
8717;BME280;4395;48.554;8.820;2023-09-30T04:41:37;96774.94;;;14.72;72.33
8717;BME280;4395;48.554;8.820;2023-09-30T04:43:42;96779.88;;;14.73;72.88
8717;BME280;4395;48.554;8.820;2023-09-30T04:45:45;96780.16;;;14.77;72.94
8717;BME280;4395;48.554;8.820;2023-09-30T04:47:51;96780.16;;;14.77;72.84
8717;BME280;4395;48.554;8.820;2023-09-30T04:49:54;96777.56;;;14.82;72.33
8717;BME280;4395;48.554;8.820;2023-09-30T04:51:59;96773.91;;;14.83;72.42
8717;BME280;4395;48.554;8.820;2023-09-30T04:54:03;96777.56;;;14.87;72.09
8717;BME280;4395;48.554;8.820;2023-09-30T04:56:09;96781.25;;;14.91;72.42
8717;BME280;4395;48.554;8.820;2023-09-30T04:58:12;96781.28;;;14.96;72.10
8717;BME280;4395;48.554;8.820;2023-09-30T05:00:16;96789.41;;;15.00;71.88
8717;BME280;4395;48.554;8.820;2023-09-30T05:02:20;96783.66;;;15.03;72.09
8717;BME280;4395;48.554;8.820;2023-09-30T05:04:22;96778.69;;;15.06;71.89
8717;BME280;4395;48.554;8.820;2023-09-30T05:06:27;96776.06;;;15.06;71.79
8717;BME280;4395;48.554;8.820;2023-09-30T05:08:30;96785.50;;;15.07;71.61
8717;BME280;4395;48.554;8.820;2023-09-30T05:10:33;96789.16;;;15.01;71.68
8717;BME280;4395;48.554;8.820;2023-09-30T05:12:36;96798.09;;;15.05;71.62
8717;BME280;4395;48.554;8.820;2023-09-30T05:14:40;96802.25;;;15.01;70.98
8717;BME280;4395;48.554;8.820;2023-09-30T05:16:42;96811.69;;;14.97;71.36
8717;BME280;4395;48.554;8.820;2023-09-30T05:18:46;96802.53;;;14.95;70.88
8717;BME280;4395;48.554;8.820;2023-09-30T05:20:50;96795.44;;;14.95;71.56
8717;BME280;4395;48.554;8.820;2023-09-30T05:22:53;96799.66;;;14.96;71.12
8717;BME280;4395;48.554;8.820;2023-09-30T05:24:55;96791.25;;;14.94;70.67
8717;BME280;4395;48.554;8.820;2023-09-30T05:26:58;96793.31;;;14.92;71.51
8717;BME280;4395;48.554;8.820;2023-09-30T05:29:02;96787.56;;;14.95;71.63
8717;BME280;4395;48.554;8.820;2023-09-30T05:31:05;96786.53;;;14.96;71.49
8717;BME280;4395;48.554;8.820;2023-09-30T05:33:09;96790.69;;;14.97;71.20
8717;BME280;4395;48.554;8.820;2023-09-30T05:35:16;96787.03;;;14.98;71.11
8717;BME280;4395;48.554;8.820;2023-09-30T05:37:20;96788.63;;;14.99;70.97
8717;BME280;4395;48.554;8.820;2023-09-30T05:39:23;96791.25;;;14.99;71.15
8717;BME280;4395;48.554;8.820;2023-09-30T05:41:27;96786.25;;;14.98;71.57
8717;BME280;4395;48.554;8.820;2023-09-30T05:43:29;96784.94;;;15.00;70.98
8717;BME280;4395;48.554;8.820;2023-09-30T05:45:33;96773.91;;;14.98;71.19
8717;BME280;4395;48.554;8.820;2023-09-30T05:47:37;96789.16;;;14.96;71.27
8717;BME280;4395;48.554;8.820;2023-09-30T05:49:39;96791.78;;;14.96;71.10
8717;BME280;4395;48.554;8.820;2023-09-30T05:51:42;96780.22;;;14.92;70.92
8717;BME280;4395;48.554;8.820;2023-09-30T05:53:46;96774.16;;;14.87;71.17
8717;BME280;4395;48.554;8.820;2023-09-30T05:55:49;96791.19;;;14.79;71.71
8717;BME280;4395;48.554;8.820;2023-09-30T05:57:52;96786.47;;;14.76;71.87
8717;BME280;4395;48.554;8.820;2023-09-30T05:59:54;96784.84;;;14.65;72.00
8717;BME280;4395;48.554;8.820;2023-09-30T06:01:58;96800.56;;;14.65;71.73
8717;BME280;4395;48.554;8.820;2023-09-30T06:04:01;96797.94;;;14.65;71.57
8717;BME280;4395;48.554;8.820;2023-09-30T06:06:10;96797.69;;;14.66;71.80
8717;BME280;4395;48.554;8.820;2023-09-30T06:08:14;96797.44;;;14.68;72.06
8717;BME280;4395;48.554;8.820;2023-09-30T06:10:17;96802.94;;;14.66;72.03
8717;BME280;4395;48.554;8.820;2023-09-30T06:12:20;96799.78;;;14.64;72.08
8717;BME280;4395;48.554;8.820;2023-09-30T06:14:23;96793.22;;;14.62;72.19
8717;BME280;4395;48.554;8.820;2023-09-30T06:16:29;96795.31;;;14.60;72.09
8717;BME280;4395;48.554;8.820;2023-09-30T06:18:34;96805.81;;;14.65;72.52
8717;BME280;4395;48.554;8.820;2023-09-30T06:20:37;96813.19;;;14.68;72.66
8717;BME280;4395;48.554;8.820;2023-09-30T06:22:40;96816.34;;;14.70;72.32
8717;BME280;4395;48.554;8.820;2023-09-30T06:24:43;96818.41;;;14.68;72.22
8717;BME280;4395;48.554;8.820;2023-09-30T06:26:45;96809.50;;;14.69;72.25
8717;BME280;4395;48.554;8.820;2023-09-30T06:28:51;96813.97;;;14.68;72.04
8717;BME280;4395;48.554;8.820;2023-09-30T06:30:56;96825.78;;;14.76;71.86
8717;BME280;4395;48.554;8.820;2023-09-30T06:32:59;96824.19;;;14.75;71.97
8717;BME280;4395;48.554;8.820;2023-09-30T06:35:05;96823.94;;;14.76;72.00
8717;BME280;4395;48.554;8.820;2023-09-30T06:37:10;96817.94;;;14.81;72.44
8717;BME280;4395;48.554;8.820;2023-09-30T06:39:11;96817.94;;;14.86;72.03
8717;BME280;4395;48.554;8.820;2023-09-30T06:41:18;96840.03;;;14.95;72.42
8717;BME280;4395;48.554;8.820;2023-09-30T06:43:21;96852.09;;;15.01;72.00
8717;BME280;4395;48.554;8.820;2023-09-30T06:45:24;96852.13;;;15.06;71.97
8717;BME280;4395;48.554;8.820;2023-09-30T06:47:28;96858.69;;;15.14;71.35
8717;BME280;4395;48.554;8.820;2023-09-30T06:49:33;96853.22;;;15.21;71.14
8717;BME280;4395;48.554;8.820;2023-09-30T06:51:37;96851.41;;;15.31;71.36
8717;BME280;4395;48.554;8.820;2023-09-30T06:53:41;96856.66;;;15.36;71.11
8717;BME280;4395;48.554;8.820;2023-09-30T06:55:44;96862.19;;;15.40;70.63
8717;BME280;4395;48.554;8.820;2023-09-30T06:57:45;96862.19;;;15.40;70.81
8717;BME280;4395;48.554;8.820;2023-09-30T06:59:48;96862.97;;;15.40;70.46
8717;BME280;4395;48.554;8.820;2023-09-30T07:01:51;96873.97;;;15.37;70.75
8717;BME280;4395;48.554;8.820;2023-09-30T07:03:54;96876.84;;;15.36;70.80
8717;BME280;4395;48.554;8.820;2023-09-30T07:05:57;96878.97;;;15.39;70.80
8717;BME280;4395;48.554;8.820;2023-09-30T07:08:04;96875.84;;;15.42;71.19
8717;BME280;4395;48.554;8.820;2023-09-30T07:10:07;96869.00;;;15.51;70.75
8717;BME280;4395;48.554;8.820;2023-09-30T07:12:10;96863.28;;;15.59;71.12
8717;BME280;4395;48.554;8.820;2023-09-30T07:14:13;96862.78;;;15.67;70.45
8717;BME280;4395;48.554;8.820;2023-09-30T07:16:16;96851.75;;;15.75;70.46
8717;BME280;4395;48.554;8.820;2023-09-30T07:18:19;96847.28;;;15.81;69.92
8717;BME280;4395;48.554;8.820;2023-09-30T07:20:22;96846.50;;;15.85;69.78
8717;BME280;4395;48.554;8.820;2023-09-30T07:22:25;96842.81;;;15.92;69.71
8717;BME280;4395;48.554;8.820;2023-09-30T07:24:49;96847.28;;;16.01;69.73
8717;BME280;4395;48.554;8.820;2023-09-30T07:26:52;96850.94;;;16.10;69.48
8717;BME280;4395;48.554;8.820;2023-09-30T07:28:55;96862.50;;;16.14;69.59
8717;BME280;4395;48.554;8.820;2023-09-30T07:31:00;96860.66;;;16.25;69.52
8717;BME280;4395;48.554;8.820;2023-09-30T07:33:03;96875.09;;;16.33;69.15
8717;BME280;4395;48.554;8.820;2023-09-30T07:35:07;96881.41;;;16.37;68.36
8717;BME280;4395;48.554;8.820;2023-09-30T07:37:10;96889.56;;;16.40;67.93
8717;BME280;4395;48.554;8.820;2023-09-30T07:39:12;96893.75;;;16.41;67.44
8717;BME280;4395;48.554;8.820;2023-09-30T07:41:16;96891.09;;;16.46;67.36
8717;BME280;4395;48.554;8.820;2023-09-30T07:43:19;96892.13;;;16.55;67.20
8717;BME280;4395;48.554;8.820;2023-09-30T07:45:22;96887.16;;;16.64;67.06
8717;BME280;4395;48.554;8.820;2023-09-30T07:47:25;96881.06;;;16.74;66.40
8717;BME280;4395;48.554;8.820;2023-09-30T07:49:28;96885.50;;;16.83;66.07
8717;BME280;4395;48.554;8.820;2023-09-30T07:51:30;96892.06;;;16.91;66.06
8717;BME280;4395;48.554;8.820;2023-09-30T07:53:33;96887.84;;;17.00;65.65
8717;BME280;4395;48.554;8.820;2023-09-30T07:55:35;96890.94;;;17.07;66.04
8717;BME280;4395;48.554;8.820;2023-09-30T07:57:40;96881.94;;;17.18;65.26
8717;BME280;4395;48.554;8.820;2023-09-30T07:59:44;96887.19;;;17.23;64.83
8717;BME280;4395;48.554;8.820;2023-09-30T08:01:48;96886.63;;;17.32;64.10
8717;BME280;4395;48.554;8.820;2023-09-30T08:03:50;96891.09;;;17.31;64.40
8717;BME280;4395;48.554;8.820;2023-09-30T08:05:53;96888.44;;;17.36;64.43
8717;BME280;4395;48.554;8.820;2023-09-30T08:07:56;96877.06;;;17.46;63.60
8717;BME280;4395;48.554;8.820;2023-09-30T08:09:59;96879.13;;;17.54;63.15
8717;BME280;4395;48.554;8.820;2023-09-30T08:12:02;96872.78;;;17.60;63.15
8717;BME280;4395;48.554;8.820;2023-09-30T08:14:07;96866.66;;;17.70;62.34
8717;BME280;4395;48.554;8.820;2023-09-30T08:16:10;96861.59;;;17.78;62.65
8717;BME280;4395;48.554;8.820;2023-09-30T08:18:13;96861.03;;;17.86;62.88
8717;BME280;4395;48.554;8.820;2023-09-30T08:20:16;96865.97;;;17.93;62.90
8717;BME280;4395;48.554;8.820;2023-09-30T08:22:18;96864.31;;;18.02;62.93
8717;BME280;4395;48.554;8.820;2023-09-30T08:24:21;96869.72;;;18.16;61.64
8717;BME280;4395;48.554;8.820;2023-09-30T08:26:24;96879.66;;;18.24;61.46
8717;BME280;4395;48.554;8.820;2023-09-30T08:28:27;96882.78;;;18.31;60.75
8717;BME280;4395;48.554;8.820;2023-09-30T08:30:32;96888.78;;;18.36;60.10
8717;BME280;4395;48.554;8.820;2023-09-30T08:32:36;96886.44;;;18.35;59.94
8717;BME280;4395;48.554;8.820;2023-09-30T08:34:38;96896.91;;;18.40;59.15
8717;BME280;4395;48.554;8.820;2023-09-30T08:36:42;96897.84;;;18.54;59.37
8717;BME280;4395;48.554;8.820;2023-09-30T08:38:44;96890.38;;;18.66;59.27
8717;BME280;4395;48.554;8.820;2023-09-30T08:40:52;96897.66;;;18.75;58.73
8717;BME280;4395;48.554;8.820;2023-09-30T08:42:54;96898.56;;;18.89;58.36
8717;BME280;4395;48.554;8.820;2023-09-30T08:44:58;96897.88;;;19.02;57.82
8717;BME280;4395;48.554;8.820;2023-09-30T08:47:02;96905.41;;;19.14;57.40
8717;BME280;4395;48.554;8.820;2023-09-30T08:49:05;96896.00;;;19.26;56.64
8717;BME280;4395;48.554;8.820;2023-09-30T08:51:07;96893.22;;;19.36;56.40
8717;BME280;4395;48.554;8.820;2023-09-30T08:53:11;96886.47;;;19.49;56.07
8717;BME280;4395;48.554;8.820;2023-09-30T08:55:15;96898.25;;;19.57;56.15
8717;BME280;4395;48.554;8.820;2023-09-30T08:57:19;96894.19;;;19.64;56.11
8717;BME280;4395;48.554;8.820;2023-09-30T08:59:21;96895.34;;;19.77;55.61
8717;BME280;4395;48.554;8.820;2023-09-30T09:01:25;96883.53;;;19.88;55.18
8717;BME280;4395;48.554;8.820;2023-09-30T09:03:29;96888.66;;;19.98;54.47
8717;BME280;4395;48.554;8.820;2023-09-30T09:05:33;96892.47;;;20.06;54.35
8717;BME280;4395;48.554;8.820;2023-09-30T09:07:36;96889.88;;;20.20;53.56
8717;BME280;4395;48.554;8.820;2023-09-30T09:09:39;96891.28;;;20.31;53.67
8717;BME280;4395;48.554;8.820;2023-09-30T09:11:42;96889.59;;;20.40;53.54
8717;BME280;4395;48.554;8.820;2023-09-30T09:13:47;96892.53;;;20.52;53.26
8717;BME280;4395;48.554;8.820;2023-09-30T09:16:06;96886.84;;;20.59;53.38
8717;BME280;4395;48.554;8.820;2023-09-30T09:18:09;96883.91;;;20.60;53.23
8717;BME280;4395;48.554;8.820;2023-09-30T09:20:18;96883.34;;;20.63;53.32
8717;BME280;4395;48.554;8.820;2023-09-30T09:22:22;96882.72;;;20.66;52.91
8717;BME280;4395;48.554;8.820;2023-09-30T09:24:29;96887.06;;;20.76;52.86
8717;BME280;4395;48.554;8.820;2023-09-30T09:26:32;96891.97;;;20.82;52.00
8717;BME280;4395;48.554;8.820;2023-09-30T09:28:37;96892.19;;;20.86;51.52
8717;BME280;4395;48.554;8.820;2023-09-30T09:30:41;96891.47;;;20.80;51.29
8717;BME280;4395;48.554;8.820;2023-09-30T09:33:09;96895.13;;;20.84;51.64
8717;BME280;4395;48.554;8.820;2023-09-30T09:35:12;96891.19;;;20.96;51.51
8717;BME280;4395;48.554;8.820;2023-09-30T09:37:16;96884.69;;;21.02;50.90
8717;BME280;4395;48.554;8.820;2023-09-30T09:39:28;96880.00;;;21.12;50.14
8717;BME280;4395;48.554;8.820;2023-09-30T09:41:32;96873.03;;;21.30;49.37
8717;BME280;4395;48.554;8.820;2023-09-30T09:43:36;96869.38;;;21.40;49.39
8717;BME280;4395;48.554;8.820;2023-09-30T09:45:39;96872.56;;;21.50;49.55
8717;BME280;4395;48.554;8.820;2023-09-30T09:47:43;96869.09;;;21.64;48.80
8717;BME280;4395;48.554;8.820;2023-09-30T09:49:45;96868.59;;;21.62;48.01
8717;BME280;4395;48.554;8.820;2023-09-30T09:51:48;96863.97;;;21.67;48.45
8717;BME280;4395;48.554;8.820;2023-09-30T09:53:53;96866.34;;;21.69;47.88
8717;BME280;4395;48.554;8.820;2023-09-30T09:55:59;96857.78;;;21.72;47.91
8717;BME280;4395;48.554;8.820;2023-09-30T09:58:03;96868.25;;;21.77;48.39
8717;BME280;4395;48.554;8.820;2023-09-30T10:00:07;96870.06;;;21.90;48.75
8717;BME280;4395;48.554;8.820;2023-09-30T10:02:15;96859.59;;;21.85;48.57
8717;BME280;4395;48.554;8.820;2023-09-30T10:04:19;96862.72;;;21.87;48.65
8717;BME280;4395;48.554;8.820;2023-09-30T10:06:22;96864.03;;;21.98;48.44
8717;BME280;4395;48.554;8.820;2023-09-30T10:08:32;96869.78;;;22.14;47.68
8717;BME280;4395;48.554;8.820;2023-09-30T10:10:37;96867.06;;;22.27;47.38
8717;BME280;4395;48.554;8.820;2023-09-30T10:12:41;96866.19;;;22.41;47.17
8717;BME280;4395;48.554;8.820;2023-09-30T10:14:44;96864.09;;;22.60;46.25
8717;BME280;4395;48.554;8.820;2023-09-30T10:16:48;96862.13;;;22.74;45.71
8717;BME280;4395;48.554;8.820;2023-09-30T10:19:07;96866.59;;;22.96;45.16
8717;BME280;4395;48.554;8.820;2023-09-30T10:21:10;96866.81;;;23.17;44.68
8717;BME280;4395;48.554;8.820;2023-09-30T10:23:24;96862.09;;;23.14;43.75
8717;BME280;4395;48.554;8.820;2023-09-30T10:25:35;96862.72;;;23.11;44.14
8717;BME280;4395;48.554;8.820;2023-09-30T10:27:39;96872.25;;;23.12;44.27
8717;BME280;4395;48.554;8.820;2023-09-30T10:29:45;96855.41;;;23.16;43.81
8717;BME280;4395;48.554;8.820;2023-09-30T10:31:50;96857.75;;;23.35;43.61
8717;BME280;4395;48.554;8.820;2023-09-30T10:34:19;96860.88;;;23.37;42.71
8717;BME280;4395;48.554;8.820;2023-09-30T10:36:27;96858.09;;;23.59;42.29
8717;BME280;4395;48.554;8.820;2023-09-30T10:38:37;96856.09;;;23.65;42.29
8717;BME280;4395;48.554;8.820;2023-09-30T10:40:41;96860.78;;;23.77;42.00
8717;BME280;4395;48.554;8.820;2023-09-30T10:42:49;96858.09;;;23.85;42.06
8717;BME280;4395;48.554;8.820;2023-09-30T10:44:56;96854.94;;;23.92;41.72
8717;BME280;4395;48.554;8.820;2023-09-30T10:47:01;96859.50;;;23.83;41.93
8717;BME280;4395;48.554;8.820;2023-09-30T10:49:31;96848.84;;;23.83;41.43
8717;BME280;4395;48.554;8.820;2023-09-30T10:51:38;96848.38;;;23.81;40.76
8717;BME280;4395;48.554;8.820;2023-09-30T10:53:43;96855.25;;;23.47;39.88
8717;BME280;4395;48.554;8.820;2023-09-30T10:55:50;96852.44;;;23.35;41.03
8717;BME280;4395;48.554;8.820;2023-09-30T10:57:58;96847.19;;;22.95;41.18
8717;BME280;4395;48.554;8.820;2023-09-30T11:00:07;96843.91;;;22.90;41.87
8717;BME280;4395;48.554;8.820;2023-09-30T11:02:19;96841.16;;;22.64;40.69
8717;BME280;4395;48.554;8.820;2023-09-30T11:04:22;96837.28;;;22.70;41.16
8717;BME280;4395;48.554;8.820;2023-09-30T11:06:25;96830.75;;;22.76;40.62
8717;BME280;4395;48.554;8.820;2023-09-30T11:08:29;96829.84;;;22.89;40.58
8717;BME280;4395;48.554;8.820;2023-09-30T11:10:31;96830.75;;;22.76;41.00
8717;BME280;4395;48.554;8.820;2023-09-30T11:12:34;96825.19;;;22.55;40.66
8717;BME280;4395;48.554;8.820;2023-09-30T11:14:38;96820.69;;;22.56;41.50
8717;BME280;4395;48.554;8.820;2023-09-30T11:16:42;96821.09;;;22.49;40.22